Time;durP1;ratioP1;P1;durP2;ratioP2;P2;SDS_P1;SDS_P2;PMS_P1;PMS_P2;Temp;Humidity;BMP_temperature;BMP_pressure;BME280_temperature;BME280_humidity;BME280_pressure;Samples;Min_cycle;Max_cycle;Signal;HPM_P1;HPM_P2
2022/04/18 00:02:25;;;;;;;;;;;21.40;46.90;;;;;;5093998;28;20359;-53
2022/04/18 00:04:52;;;;;;;;;;;21.40;46.90;;;;;;5076141;28;20003;-51
2022/04/18 00:07:19;;;;;;;;;;;21.40;47.00;;;;;;5076403;28;19925;-53
2022/04/18 00:09:46;;;;;;;;;;;21.40;47.00;;;;;;5092765;28;19981;-53
2022/04/18 00:12:13;;;;;;;;;;;21.30;46.90;;;;;;5093974;28;19959;-49
2022/04/18 00:14:40;;;;;;;;;;;21.30;46.90;;;;;;5093812;28;20276;-52
2022/04/18 00:17:09;;;;;;;;;;;21.30;46.90;;;;;;5093755;28;20333;-51
2022/04/18 00:19:37;;;;;;;;;;;21.30;46.90;;;;;;5093534;28;19924;-51
2022/04/18 00:22:05;;;;;;;;;;;21.30;46.90;;;;;;5093372;28;19924;-48
2022/04/18 00:24:32;;;;;;;;;;;21.30;46.90;;;;;;5092418;28;19968;-49
2022/04/18 00:27:00;;;;;;;;;;;21.30;46.90;;;;;;5093730;28;19978;-44
2022/04/18 00:29:28;;;;;;;;;;;21.30;46.90;;;;;;5093632;28;19924;-47
2022/04/18 00:31:55;;;;;;;;;;;21.30;46.90;;;;;;5093733;28;20303;-51
2022/04/18 00:34:22;;;;;;;;;;;21.30;46.90;;;;;;5093151;28;20018;-47
2022/04/18 00:36:49;;;;;;;;;;;21.30;46.90;;;;;;5093566;28;20014;-45
2022/04/18 00:39:16;;;;;;;;;;;21.30;46.90;;;;;;5074838;28;20011;-47
2022/04/18 00:41:43;;;;;;;;;;;21.30;46.90;;;;;;5093335;28;19974;-45
2022/04/18 00:44:10;;;;;;;;;;;21.30;46.90;;;;;;5093300;28;20007;-51
2022/04/18 00:46:37;;;;;;;;;;;21.30;46.90;;;;;;5094776;28;19925;-52
2022/04/18 00:49:04;;;;;;;;;;;21.30;46.90;;;;;;5096933;28;20387;-50
2022/04/18 00:51:31;;;;;;;;;;;21.30;46.90;;;;;;5096826;28;19924;-47
2022/04/18 00:53:58;;;;;;;;;;;21.30;47.00;;;;;;5096623;28;19981;-46
2022/04/18 00:56:26;;;;;;;;;;;21.30;47.00;;;;;;5095990;28;19928;-44
2022/04/18 00:58:54;;;;;;;;;;;21.30;47.00;;;;;;5096772;28;19924;-45
2022/04/18 01:01:22;;;;;;;;;;;21.30;46.90;;;;;;5096565;28;19973;-46
2022/04/18 01:03:50;;;;;;;;;;;21.30;46.90;;;;;;5097115;28;20320;-45
2022/04/18 01:06:18;;;;;;;;;;;21.30;47.00;;;;;;5097011;28;19982;-46
2022/04/18 01:08:47;;;;;;;;;;;21.30;47.00;;;;;;5096523;28;19924;-45
2022/04/18 01:11:14;;;;;;;;;;;21.30;47.00;;;;;;5096106;28;19977;-46
2022/04/18 01:13:45;;;;;;;;;;;21.30;47.00;;;;;;5096629;28;19950;-51
2022/04/18 01:16:12;;;;;;;;;;;21.30;47.00;;;;;;5096367;28;20345;-48
2022/04/18 01:18:40;;;;;;;;;;;21.30;47.00;;;;;;5096417;28;19930;-51
2022/04/18 01:21:08;;;;;;;;;;;21.30;47.00;;;;;;5096042;28;19928;-51
2022/04/18 01:23:35;;;;;;;;;;;21.30;47.00;;;;;;5077999;28;19924;-45
2022/04/18 01:29:01;;;;;;;;;;;21.30;47.00;;;;;;5096115;28;20019;-49
2022/04/18 01:31:30;;;;;;;;;;;21.30;47.00;;;;;;5096593;28;19999;-44
2022/04/18 01:33:57;;;;;;;;;;;21.30;47.00;;;;;;5096520;28;19946;-47
2022/04/18 01:36:25;;;;;;;;;;;21.30;47.00;;;;;;5095976;28;19970;-45
2022/04/18 01:38:52;;;;;;;;;;;21.30;47.00;;;;;;5096337;28;19983;-49
2022/04/18 01:41:19;;;;;;;;;;;21.30;47.00;;;;;;5095345;28;20315;-50
2022/04/18 01:43:46;;;;;;;;;;;21.30;47.00;;;;;;5096320;28;19935;-46
2022/04/18 01:46:14;;;;;;;;;;;21.30;47.10;;;;;;5096004;28;19924;-50
2022/04/18 01:48:41;;;;;;;;;;;21.30;47.00;;;;;;5095918;28;20443;-47
2022/04/18 01:51:08;;;;;;;;;;;21.30;47.00;;;;;;5095772;28;19924;-48
2022/04/18 01:53:36;;;;;;;;;;;21.30;47.10;;;;;;5095755;28;19931;-52
2022/04/18 01:56:03;;;;;;;;;;;21.30;47.00;;;;;;5094735;28;20334;-45
2022/04/18 01:58:30;;;;;;;;;;;21.30;47.00;;;;;;5094717;28;20371;-44
2022/04/18 02:00:57;;;;;;;;;;;21.30;47.00;;;;;;5095566;28;19977;-49
2022/04/18 02:03:24;;;;;;;;;;;21.30;47.00;;;;;;5095874;28;20007;-51
2022/04/18 02:05:52;;;;;;;;;;;21.30;47.00;;;;;;5095518;28;20022;-52
2022/04/18 02:08:19;;;;;;;;;;;21.30;47.00;;;;;;5095762;28;19924;-47
2022/04/18 02:10:47;;;;;;;;;;;21.20;46.90;;;;;;5094455;28;19924;-51
2022/04/18 02:13:14;;;;;;;;;;;21.30;47.10;;;;;;5095669;28;19959;-47
2022/04/18 02:15:42;;;;;;;;;;;21.20;47.00;;;;;;5095225;28;19924;-52
2022/04/18 02:18:09;;;;;;;;;;;21.20;47.00;;;;;;5095466;28;19924;-51
2022/04/18 02:20:37;;;;;;;;;;;21.20;47.00;;;;;;5077194;28;19928;-45
2022/04/18 02:23:04;;;;;;;;;;;21.20;47.00;;;;;;5094901;28;20392;-48
2022/04/18 02:25:31;;;;;;;;;;;21.20;47.00;;;;;;5094159;28;20303;-47
2022/04/18 02:27:58;;;;;;;;;;;21.20;47.00;;;;;;5094970;28;19976;-51
2022/04/18 02:30:25;;;;;;;;;;;21.20;47.00;;;;;;5095002;28;20007;-48
2022/04/18 02:32:52;;;;;;;;;;;21.20;47.00;;;;;;5095193;28;20303;-44
2022/04/18 02:35:23;;;;;;;;;;;21.20;47.00;;;;;;5095246;28;19924;-50
2022/04/18 02:37:50;;;;;;;;;;;21.20;47.00;;;;;;5095089;28;19997;-44
2022/04/18 02:40:17;;;;;;;;;;;21.20;47.00;;;;;;5093916;28;19932;-46
2022/04/18 02:42:44;;;;;;;;;;;21.20;47.00;;;;;;5095116;28;19950;-46
2022/04/18 02:45:13;;;;;;;;;;;21.20;47.00;;;;;;5095056;28;20337;-46
2022/04/18 02:47:41;;;;;;;;;;;21.20;47.00;;;;;;5094692;28;19924;-51
2022/04/18 02:50:08;;;;;;;;;;;21.20;47.00;;;;;;5094971;28;19932;-45
2022/04/18 02:52:36;;;;;;;;;;;21.20;47.00;;;;;;5094949;28;19924;-49
2022/04/18 02:55:04;;;;;;;;;;;21.20;47.00;;;;;;5094584;28;20384;-46
2022/04/18 02:57:31;;;;;;;;;;;21.20;47.00;;;;;;5093463;28;19924;-45
2022/04/18 02:59:58;;;;;;;;;;;21.20;47.00;;;;;;5094416;28;20380;-50
2022/04/18 03:02:25;;;;;;;;;;;21.20;47.00;;;;;;5094380;28;19925;-44
2022/04/18 03:04:52;;;;;;;;;;;21.20;47.00;;;;;;5094654;28;19924;-50
2022/04/18 03:07:19;;;;;;;;;;;21.20;47.00;;;;;;5094314;28;19924;-51
2022/04/18 03:09:46;;;;;;;;;;;21.20;47.00;;;;;;5094282;28;19953;-44
2022/04/18 03:12:13;;;;;;;;;;;21.20;47.00;;;;;;5093339;28;19970;-45
2022/04/18 03:14:40;;;;;;;;;;;21.20;47.00;;;;;;5094199;28;19931;-44
2022/04/18 03:17:07;;;;;;;;;;;21.20;47.00;;;;;;5094066;28;19981;-47
2022/04/18 03:19:34;;;;;;;;;;;21.20;47.00;;;;;;5094383;28;19924;-48
2022/04/18 03:22:01;;;;;;;;;;;21.20;47.00;;;;;;5094195;28;19974;-53
2022/04/18 03:24:28;;;;;;;;;;;21.20;47.10;;;;;;5093940;28;19969;-52
2022/04/18 03:26:55;;;;;;;;;;;21.20;47.10;;;;;;5093287;28;20329;-50
2022/04/18 03:29:22;;;;;;;;;;;21.20;47.10;;;;;;5093957;28;19954;-50
2022/04/18 03:31:49;;;;;;;;;;;21.20;47.10;;;;;;5094237;28;19970;-48
2022/04/18 03:34:16;;;;;;;;;;;21.20;47.10;;;;;;5094189;28;19985;-52
2022/04/18 03:42:14;;;;;;;;;;;21.10;47.00;;;;;;5093289;28;20341;-50
2022/04/18 03:44:43;;;;;;;;;;;21.20;47.10;;;;;;5094078;28;19936;-52
2022/04/18 03:47:11;;;;;;;;;;;21.20;47.10;;;;;;5093757;28;19932;-44
2022/04/18 03:49:38;;;;;;;;;;;21.20;47.10;;;;;;5076226;28;19924;-44
2022/04/18 03:52:06;;;;;;;;;;;21.20;47.10;;;;;;5094005;28;19928;-52
2022/04/18 03:54:34;;;;;;;;;;;21.20;47.40;;;;;;5093729;28;19924;-49
2022/04/18 03:57:02;;;;;;;;;;;21.20;47.10;;;;;;5093404;28;20031;-47
2022/04/18 03:59:29;;;;;;;;;;;21.20;47.10;;;;;;5093876;28;19928;-53
2022/04/18 04:01:56;;;;;;;;;;;21.20;47.10;;;;;;5093939;28;20290;-44
2022/04/18 04:04:23;;;;;;;;;;;21.20;47.10;;;;;;5093642;28;20407;-46
2022/04/18 04:06:50;;;;;;;;;;;21.10;47.00;;;;;;5093903;28;19931;-50
2022/04/18 04:09:17;;;;;;;;;;;21.20;47.10;;;;;;5093870;28;19924;-51
2022/04/18 04:11:46;;;;;;;;;;;21.10;47.00;;;;;;5092585;28;19928;-45
2022/04/18 04:14:13;;;;;;;;;;;21.10;47.00;;;;;;5093474;28;19924;-49
2022/04/18 04:16:40;;;;;;;;;;;21.10;47.00;;;;;;5093689;28;19978;-43
2022/04/18 04:19:07;;;;;;;;;;;21.20;47.10;;;;;;5093362;28;19997;-45
2022/04/18 04:21:35;;;;;;;;;;;21.10;47.00;;;;;;5094817;28;19950;-44
2022/04/18 04:24:02;;;;;;;;;;;21.10;47.00;;;;;;5097334;28;19924;-44
2022/04/18 04:26:29;;;;;;;;;;;21.10;47.00;;;;;;5096745;28;19924;-47
2022/04/18 04:28:56;;;;;;;;;;;21.10;47.00;;;;;;5097328;28;19954;-45
2022/04/18 04:31:23;;;;;;;;;;;21.10;47.00;;;;;;5097588;28;20011;-44
2022/04/18 04:33:51;;;;;;;;;;;21.10;47.00;;;;;;5097578;28;19978;-45
2022/04/18 04:36:18;;;;;;;;;;;21.20;47.10;;;;;;5097221;28;19928;-47
2022/04/18 04:38:44;;;;;;;;;;;21.20;47.10;;;;;;5097103;28;19924;-45
2022/04/18 04:41:12;;;;;;;;;;;21.20;47.00;;;;;;5097164;28;19924;-45
2022/04/18 04:43:39;;;;;;;;;;;21.20;47.00;;;;;;5096461;28;19924;-45
2022/04/18 04:46:06;;;;;;;;;;;21.20;47.00;;;;;;5097027;28;19964;-45
2022/04/18 04:48:33;;;;;;;;;;;21.20;47.00;;;;;;5096995;28;19924;-45
2022/04/18 04:51:00;;;;;;;;;;;21.20;47.00;;;;;;5078942;28;19928;-44
2022/04/18 04:53:27;;;;;;;;;;;21.20;47.00;;;;;;5097216;28;20041;-44
2022/04/18 04:55:54;;;;;;;;;;;21.20;47.00;;;;;;5096804;28;20395;-45
2022/04/18 04:58:21;;;;;;;;;;;21.20;46.90;;;;;;5096150;28;19924;-47
2022/04/18 05:00:48;;;;;;;;;;;21.20;46.90;;;;;;5097036;28;19928;-49
2022/04/18 05:03:16;;;;;;;;;;;21.20;46.90;;;;;;5097020;28;19924;-50
2022/04/18 05:05:44;;;;;;;;;;;21.20;46.90;;;;;;5096991;28;19924;-47
2022/04/18 05:08:11;;;;;;;;;;;21.20;46.90;;;;;;5096939;28;19931;-44
2022/04/18 05:10:38;;;;;;;;;;;21.20;46.90;;;;;;5096589;28;19974;-44
2022/04/18 05:13:05;;;;;;;;;;;21.20;46.90;;;;;;5095637;28;19924;-46
2022/04/18 05:15:33;;;;;;;;;;;21.20;46.90;;;;;;5096475;28;19924;-47
2022/04/18 05:18:00;;;;;;;;;;;21.20;46.80;;;;;;5096659;28;20034;-46
2022/04/18 05:20:27;;;;;;;;;;;21.20;46.80;;;;;;5096252;28;19928;-47
2022/04/18 05:22:55;;;;;;;;;;;21.30;46.90;;;;;;5096140;28;19970;-47
2022/04/18 05:25:24;;;;;;;;;;;21.30;46.80;;;;;;5096592;28;19924;-44
2022/04/18 05:27:51;;;;;;;;;;;21.30;46.80;;;;;;5077379;28;19990;-48
2022/04/18 05:30:18;;;;;;;;;;;21.30;46.70;;;;;;5096193;28;19924;-45
2022/04/18 05:32:45;;;;;;;;;;;21.30;46.70;;;;;;5095257;28;19924;-49
2022/04/18 05:35:12;;;;;;;;;;;21.30;46.70;;;;;;5096054;28;19977;-45
2022/04/18 05:37:40;;;;;;;;;;;21.30;46.70;;;;;;5096305;28;19924;-46
2022/04/18 05:40:07;;;;;;;;;;;21.40;46.70;;;;;;5095885;28;19932;-46
2022/04/18 05:42:35;;;;;;;;;;;21.30;46.60;;;;;;5095072;28;19924;-49
2022/04/18 05:45:02;;;;;;;;;;;21.40;46.60;;;;;;5095880;28;19932;-46
2022/04/18 05:47:29;;;;;;;;;;;21.40;46.60;;;;;;5095900;28;19924;-47
2022/04/18 05:49:56;;;;;;;;;;;21.40;46.60;;;;;;5096146;28;20330;-45
2022/04/18 05:52:23;;;;;;;;;;;21.40;46.50;;;;;;5095978;28;19924;-49
2022/04/18 05:54:50;;;;;;;;;;;21.40;46.50;;;;;;5096057;28;19924;-53
2022/04/18 05:57:17;;;;;;;;;;;21.40;46.50;;;;;;5094692;28;20387;-45
2022/04/18 05:59:44;;;;;;;;;;;21.40;46.50;;;;;;5095880;28;19924;-44
2022/04/18 06:02:11;;;;;;;;;;;21.40;46.50;;;;;;5095912;28;20268;-44
2022/04/18 06:04:39;;;;;;;;;;;21.40;46.40;;;;;;5095534;28;19928;-44
2022/04/18 06:07:06;;;;;;;;;;;21.40;46.40;;;;;;5095861;28;20318;-44
2022/04/18 06:09:33;;;;;;;;;;;21.40;46.40;;;;;;5095727;28;19924;-43
2022/04/18 06:12:01;;;;;;;;;;;21.50;46.50;;;;;;5095669;28;19927;-46
2022/04/18 06:14:28;;;;;;;;;;;21.50;46.40;;;;;;5094398;28;20407;-43
2022/04/18 06:16:55;;;;;;;;;;;21.40;46.40;;;;;;5095256;28;19924;-45
2022/04/18 06:19:23;;;;;;;;;;;21.50;46.40;;;;;;5095441;28;19924;-45
2022/04/18 06:21:50;;;;;;;;;;;21.50;46.40;;;;;;5077148;28;19925;-45
2022/04/18 06:24:18;;;;;;;;;;;21.50;46.40;;;;;;5095009;28;19924;-45
2022/04/18 06:26:45;;;;;;;;;;;21.50;46.40;;;;;;5094972;28;19924;-45
2022/04/18 06:29:12;;;;;;;;;;;21.50;46.30;;;;;;5091813;28;19947;-44
2022/04/18 06:31:39;;;;;;;;;;;21.50;46.30;;;;;;5075620;28;19928;-51
2022/04/18 06:34:07;;;;;;;;;;;21.50;46.30;;;;;;5075573;28;19925;-52
2022/04/18 06:36:34;;;;;;;;;;;21.50;46.30;;;;;;5075014;28;20261;-52
2022/04/18 06:39:02;;;;;;;;;;;21.50;46.30;;;;;;5074895;28;19978;-51
2022/04/18 06:41:29;;;;;;;;;;;21.50;46.30;;;;;;5074608;28;19925;-52
2022/04/18 06:43:56;;;;;;;;;;;21.50;46.20;;;;;;5084400;28;19924;-51
2022/04/18 06:46:23;;;;;;;;;;;21.50;46.20;;;;;;5094720;28;19924;-50
2022/04/18 06:48:50;;;;;;;;;;;21.60;46.30;;;;;;5095007;28;19928;-50
2022/04/18 06:51:17;;;;;;;;;;;21.60;46.20;;;;;;5094525;28;19931;-52
2022/04/18 06:53:44;;;;;;;;;;;21.60;46.20;;;;;;5094617;28;19928;-52
2022/04/18 06:58:56;;;;;;;;;;;21.60;46.20;;;;;;5093599;28;19924;-47
2022/04/18 07:01:23;;;;;;;;;;;21.60;46.20;;;;;;5094460;28;19969;-52
2022/04/18 07:03:50;;;;;;;;;;;21.60;46.10;;;;;;5094419;28;19931;-51
2022/04/18 07:06:17;;;;;;;;;;;21.60;46.10;;;;;;5094691;28;19924;-47
2022/04/18 07:08:47;;;;;;;;;;;21.60;46.10;;;;;;5094354;28;19931;-44
2022/04/18 07:11:14;;;;;;;;;;;21.60;46.10;;;;;;5094261;28;19974;-49
2022/04/18 07:13:41;;;;;;;;;;;21.60;46.00;;;;;;5093625;28;19924;-44
2022/04/18 07:16:09;;;;;;;;;;;21.60;46.10;;;;;;5094509;28;20345;-51
2022/04/18 07:18:36;;;;;;;;;;;21.70;46.10;;;;;;5094381;28;19968;-49
2022/04/18 07:21:03;;;;;;;;;;;21.70;46.00;;;;;;5094358;28;19977;-49
2022/04/18 07:23:30;;;;;;;;;;;21.70;46.00;;;;;;5093888;28;19931;-45
2022/04/18 07:25:57;;;;;;;;;;;21.70;46.00;;;;;;5076060;28;19931;-52
2022/04/18 07:28:24;;;;;;;;;;;21.70;46.00;;;;;;5093094;28;19928;-47
2022/04/18 07:30:51;;;;;;;;;;;21.70;45.90;;;;;;5094282;28;19924;-44
2022/04/18 07:33:18;;;;;;;;;;;21.70;45.90;;;;;;5093957;28;20453;-52
2022/04/18 07:35:45;;;;;;;;;;;21.70;45.80;;;;;;5093948;28;20337;-49
2022/04/18 07:41:04;;;;;;;;;;;21.80;45.90;;;;;;5094238;28;19999;-44
2022/04/18 07:43:34;;;;;;;;;;;21.80;45.80;;;;;;5093213;28;19931;-52
2022/04/18 07:46:02;;;;;;;;;;;21.80;45.80;;;;;;5093799;28;20432;-51
2022/04/18 07:48:32;;;;;;;;;;;21.80;45.80;;;;;;5094055;28;19977;-46
2022/04/18 07:53:45;;;;;;;;;;;21.80;45.70;;;;;;5094062;28;19924;-45
2022/04/18 07:56:12;;;;;;;;;;;21.80;45.70;;;;;;5092902;28;19950;-53
2022/04/18 07:58:38;;;;;;;;;;;21.90;45.70;;;;;;5092630;28;19928;-50
2022/04/18 08:01:06;;;;;;;;;;;22.00;45.70;;;;;;5093555;28;20045;-47
2022/04/18 08:03:34;;;;;;;;;;;22.00;45.60;;;;;;5093896;28;19924;-44
2022/04/18 08:06:02;;;;;;;;;;;22.00;45.50;;;;;;5093873;28;20006;-49
2022/04/18 08:08:29;;;;;;;;;;;22.00;45.40;;;;;;5093570;28;19935;-45
2022/04/18 08:10:59;;;;;;;;;;;22.00;45.40;;;;;;5093550;28;19924;-50
2022/04/18 08:13:27;;;;;;;;;;;22.10;45.40;;;;;;5093808;28;19925;-50
2022/04/18 08:15:54;;;;;;;;;;;22.10;45.40;;;;;;5092935;28;19969;-47
2022/04/18 08:18:22;;;;;;;;;;;22.10;45.40;;;;;;5094251;28;20383;-47
2022/04/18 08:20:49;;;;;;;;;;;22.10;45.30;;;;;;5093256;28;19994;-44
2022/04/18 08:23:16;;;;;;;;;;;22.10;45.80;;;;;;5093242;28;19947;-48
2022/04/18 08:25:43;;;;;;;;;;;22.10;45.20;;;;;;5093647;28;19928;-45
2022/04/18 08:28:11;;;;;;;;;;;22.10;45.20;;;;;;5093311;28;20437;-49
2022/04/18 08:30:38;;;;;;;;;;;22.20;45.30;;;;;;5092459;28;20373;-48
2022/04/18 08:33:05;;;;;;;;;;;22.20;45.30;;;;;;5093624;28;19924;-44
2022/04/18 08:35:32;;;;;;;;;;;22.20;45.20;;;;;;5093335;28;20345;-49
2022/04/18 08:38:00;;;;;;;;;;;22.20;45.10;;;;;;5093606;28;19978;-44
2022/04/18 08:40:27;;;;;;;;;;;22.20;45.20;;;;;;5075731;28;19924;-45
2022/04/18 08:42:57;;;;;;;;;;;22.20;45.10;;;;;;5093276;28;20372;-48
2022/04/18 08:45:25;;;;;;;;;;;22.20;45.10;;;;;;5092331;28;19928;-44
2022/04/18 08:53:26;;;;;;;;;;;22.20;45.00;;;;;;5093517;28;19924;-44
2022/04/18 08:55:54;;;;;;;;;;;22.30;45.10;;;;;;5093339;28;20324;-45
2022/04/18 08:58:22;;;;;;;;;;;22.30;45.00;;;;;;5093139;28;19978;-45
2022/04/18 09:00:50;;;;;;;;;;;22.30;45.00;;;;;;5092345;28;19932;-44
2022/04/18 09:03:23;;;;;;;;;;;22.30;44.90;;;;;;5093418;28;19924;-49
2022/04/18 09:06:02;;;;;;;;;;;22.30;44.90;;;;;;5093370;28;20249;-46
2022/04/18 09:08:32;;;;;;;;;;;22.30;44.80;;;;;;5096087;28;19924;-46
2022/04/18 09:10:59;;;;;;;;;;;22.40;44.90;;;;;;5096950;28;19989;-49
2022/04/18 09:13:26;;;;;;;;;;;22.30;44.80;;;;;;5096421;28;19931;-44
2022/04/18 09:15:54;;;;;;;;;;;22.40;44.80;;;;;;5095499;28;20376;-49
2022/04/18 09:18:24;;;;;;;;;;;22.40;44.80;;;;;;5096405;28;19931;-44
2022/04/18 09:20:55;;;;;;;;;;;22.40;44.80;;;;;;5096572;28;19924;-45
2022/04/18 09:23:29;;;;;;;;;;;22.40;44.80;;;;;;5096213;28;19930;-47
2022/04/18 09:26:02;;;;;;;;;;;22.40;45.40;;;;;;5096282;28;19924;-45
2022/04/18 09:28:36;;;;;;;;;;;22.40;44.70;;;;;;5096283;28;20383;-46
2022/04/18 09:31:07;;;;;;;;;;;22.50;44.80;;;;;;5095361;28;19977;-48
2022/04/18 09:33:37;;;;;;;;;;;22.50;44.70;;;;;;5096561;28;19924;-44
2022/04/18 09:36:05;;;;;;;;;;;22.50;44.70;;;;;;5096209;28;19924;-43
2022/04/18 09:38:35;;;;;;;;;;;22.50;44.60;;;;;;5096933;28;19924;-47
2022/04/18 09:41:02;;;;;;;;;;;22.50;44.60;;;;;;5095915;28;19924;-46
2022/04/18 09:43:38;;;;;;;;;;;22.60;44.60;;;;;;5096016;28;19975;-47
2022/04/18 09:46:06;;;;;;;;;;;22.50;44.50;;;;;;5095343;28;19924;-51
2022/04/18 09:48:36;;;;;;;;;;;22.60;44.60;;;;;;5096219;28;19974;-46
2022/04/18 09:51:11;;;;;;;;;;;22.60;44.60;;;;;;5096124;28;19944;-52
2022/04/18 09:53:39;;;;;;;;;;;22.60;44.50;;;;;;5095872;28;19924;-52
2022/04/18 09:56:07;;;;;;;;;;;22.60;44.50;;;;;;5095686;28;19925;-52
2022/04/18 09:58:34;;;;;;;;;;;22.60;44.40;;;;;;5095741;28;19973;-49
2022/04/18 10:01:22;;;;;;;;;;;22.60;44.40;;;;;;5094856;28;20409;-51
2022/04/18 10:03:52;;;;;;;;;;;22.60;44.40;;;;;;5095650;28;19924;-51
2022/04/18 10:06:20;;;;;;;;;;;22.70;44.40;;;;;;5095879;28;19928;-52
2022/04/18 10:08:47;;;;;;;;;;;22.70;44.50;;;;;;5095856;28;20338;-53
2022/04/18 10:11:14;;;;;;;;;;;22.70;44.40;;;;;;5095472;28;20418;-52
2022/04/18 10:13:41;;;;;;;;;;;22.70;44.40;;;;;;5060934;28;19931;-49
2022/04/18 10:16:08;;;;;;;;;;;22.70;44.40;;;;;;5094817;28;19931;-47
2022/04/18 10:18:39;;;;;;;;;;;22.70;44.40;;;;;;5094772;28;19972;-46
2022/04/18 10:21:07;;;;;;;;;;;22.70;44.40;;;;;;5095464;28;19978;-48
2022/04/18 10:23:53;;;;;;;;;;;22.70;44.40;;;;;;5095055;28;19989;-50
2022/04/18 10:26:34;;;;;;;;;;;22.70;44.40;;;;;;5095181;28;20276;-44
2022/04/18 10:29:07;;;;;;;;;;;22.70;44.40;;;;;;5095196;28;20441;-47
2022/04/18 10:31:37;;;;;;;;;;;22.70;44.40;;;;;;5076063;28;20137;-45
2022/04/18 10:34:04;;;;;;;;;;;22.70;44.30;;;;;;5095007;28;19925;-52
2022/04/18 10:36:32;;;;;;;;;;;22.70;44.30;;;;;;5095332;28;19928;-48
2022/04/18 10:39:06;;;;;;;;;;;22.70;44.30;;;;;;5095233;28;19932;-47
2022/04/18 10:41:36;;;;;;;;;;;22.80;44.40;;;;;;5094907;28;20421;-49
2022/04/18 10:44:07;;;;;;;;;;;22.80;44.30;;;;;;5094855;28;19973;-44
2022/04/18 10:46:55;;;;;;;;;;;22.80;44.30;;;;;;5094258;28;19993;-45
2022/04/18 10:49:27;;;;;;;;;;;22.80;44.30;;;;;;5086892;28;19924;-49
2022/04/18 10:51:54;;;;;;;;;;;22.80;44.20;;;;;;5094928;28;19960;-50
2022/04/18 10:54:23;;;;;;;;;;;22.90;44.30;;;;;;5094685;28;19924;-49
2022/04/18 10:56:50;;;;;;;;;;;22.90;44.20;;;;;;5094535;28;19969;-47
2022/04/18 10:59:18;;;;;;;;;;;22.90;44.20;;;;;;5094521;28;19931;-44
2022/04/18 11:01:45;;;;;;;;;;;22.90;44.20;;;;;;5093545;28;19931;-46
2022/04/18 11:04:13;;;;;;;;;;;22.90;44.20;;;;;;5094458;28;19946;-53
2022/04/18 11:06:40;;;;;;;;;;;22.90;44.20;;;;;;5094365;28;19928;-48
2022/04/18 11:09:08;;;;;;;;;;;22.90;44.20;;;;;;5094407;28;19924;-45
2022/04/18 11:11:56;;;;;;;;;;;22.90;44.20;;;;;;5094376;28;20460;-50
2022/04/18 11:14:27;;;;;;;;;;;22.90;44.20;;;;;;5084280;28;19931;-51
2022/04/18 11:16:59;;;;;;;;;;;22.90;44.20;;;;;;5093643;28;19924;-49
2022/04/18 11:19:28;;;;;;;;;;;22.90;44.20;;;;;;5095309;28;19977;-45
2022/04/18 11:21:59;;;;;;;;;;;22.90;44.20;;;;;;5094437;28;19924;-49
2022/04/18 11:25:03;;;;;;;;;;;23.00;44.20;;;;;;5094100;28;19924;-48
2022/04/18 11:27:32;;;;;;;;;;;22.90;44.10;;;;;;5031740;28;19975;-49
2022/04/18 11:30:07;;;;;;;;;;;23.00;44.10;;;;;;5031843;28;19925;-50
2022/04/18 11:32:36;;;;;;;;;;;23.00;44.10;;;;;;5030425;28;19926;-44
2022/04/18 11:35:05;;;;;;;;;;;22.90;44.00;;;;;;5031838;28;19925;-45
2022/04/18 11:37:39;;;;;;;;;;;23.00;44.10;;;;;;5031780;28;19926;-50
2022/04/18 11:40:08;;;;;;;;;;;23.00;44.00;;;;;;5031742;28;20476;-46
2022/04/18 11:42:37;;;;;;;;;;;23.00;44.00;;;;;;5031876;28;19960;-49
2022/04/18 11:45:05;;;;;;;;;;;22.90;44.00;;;;;;5031694;28;19955;-51
2022/04/18 11:47:35;;;;;;;;;;;23.00;44.10;;;;;;5030714;28;20004;-46
2022/04/18 11:50:02;;;;;;;;;;;23.00;44.10;;;;;;5031637;28;19925;-46
2022/04/18 11:52:31;;;;;;;;;;;23.00;44.20;;;;;;5031493;28;19925;-51
2022/04/18 11:55:19;;;;;;;;;;;23.00;44.20;;;;;;5031675;28;19925;-48
2022/04/18 11:57:47;;;;;;;;;;;23.00;44.20;;;;;;5031504;28;19925;-44
2022/04/18 12:06:44;;;;;;;;;;;23.00;44.20;;;;;;5015989;28;20012;-44
2022/04/18 12:08:36;;;;;;;;;;;22.90;44.20;;;;;;5093649;28;19924;-45
2022/04/18 12:11:04;;;;;;;;;;;22.90;44.20;;;;;;5093595;28;19939;-44
2022/04/18 12:13:31;;;;;;;;;;;22.90;44.20;;;;;;5093561;28;19929;-45
2022/04/18 12:15:59;;;;;;;;;;;22.90;44.80;;;;;;5093520;28;20447;-44
2022/04/18 12:18:26;;;;;;;;;;;22.90;44.20;;;;;;5092857;28;19963;-45
2022/04/18 12:20:53;;;;;;;;;;;22.90;44.20;;;;;;5093649;28;19928;-45
2022/04/18 12:23:21;;;;;;;;;;;22.80;44.20;;;;;;5093266;28;20376;-44
2022/04/18 12:25:50;;;;;;;;;;;22.90;44.20;;;;;;5093357;28;19924;-45
2022/04/18 12:28:19;;;;;;;;;;;22.90;44.20;;;;;;5093744;28;20280;-50
2022/04/18 12:30:46;;;;;;;;;;;22.90;44.20;;;;;;5093406;28;19931;-45
2022/04/18 12:33:15;;;;;;;;;;;22.90;44.20;;;;;;5092789;28;19993;-44
2022/04/18 12:35:43;;;;;;;;;;;22.90;44.20;;;;;;5093681;28;19986;-53
2022/04/18 12:38:11;;;;;;;;;;;22.90;44.20;;;;;;5093369;28;19924;-52
2022/04/18 12:40:38;;;;;;;;;;;22.90;44.20;;;;;;5093529;28;20353;-52
2022/04/18 12:43:12;;;;;;;;;;;22.90;44.20;;;;;;5095593;28;19924;-48
2022/04/18 12:45:50;;;;;;;;;;;22.90;44.30;;;;;;5079365;28;19924;-52
2022/04/18 12:48:27;;;;;;;;;;;22.90;44.30;;;;;;5096535;28;19928;-49
2022/04/18 12:50:55;;;;;;;;;;;22.90;44.30;;;;;;5096919;28;20372;-51
2022/04/18 12:53:42;;;;;;;;;;;22.90;44.30;;;;;;5096949;28;19924;-44
2022/04/18 12:56:10;;;;;;;;;;;22.80;44.30;;;;;;5097713;28;19928;-53
2022/04/18 12:58:41;;;;;;;;;;;22.80;44.30;;;;;;5097263;28;19927;-51
2022/04/18 13:01:08;;;;;;;;;;;22.80;44.30;;;;;;5097178;28;20290;-46
2022/04/18 13:03:42;;;;;;;;;;;22.80;44.30;;;;;;5096207;28;19993;-53
2022/04/18 13:06:10;;;;;;;;;;;22.80;44.30;;;;;;5097095;28;19993;-51
2022/04/18 13:08:38;;;;;;;;;;;22.80;44.30;;;;;;5096751;28;19928;-44
2022/04/18 13:11:05;;;;;;;;;;;22.80;44.30;;;;;;5096683;28;19924;-49
2022/04/18 13:13:33;;;;;;;;;;;22.80;44.40;;;;;;5096688;28;19928;-44
2022/04/18 13:16:18;;;;;;;;;;;22.80;44.40;;;;;;5097339;28;20384;-44
2022/04/18 13:18:45;;;;;;;;;;;22.80;44.40;;;;;;5095560;28;20433;-51
2022/04/18 13:21:12;;;;;;;;;;;22.80;44.40;;;;;;5096575;28;19928;-48
2022/04/18 13:23:39;;;;;;;;;;;22.80;44.40;;;;;;5096494;28;19973;-44
2022/04/18 13:26:06;;;;;;;;;;;22.80;44.40;;;;;;5096601;28;19929;-51
2022/04/18 13:28:33;;;;;;;;;;;22.80;44.40;;;;;;5096361;28;19924;-45
2022/04/18 13:31:00;;;;;;;;;;;22.80;44.40;;;;;;5096624;28;19974;-45
2022/04/18 13:33:27;;;;;;;;;;;22.80;44.40;;;;;;5095605;28;20318;-45
2022/04/18 13:38:57;;;;;;;;;;;22.80;44.40;;;;;;5034504;28;19929;-44
2022/04/18 13:41:24;;;;;;;;;;;22.90;44.40;;;;;;5033988;28;20450;-48
2022/04/18 13:43:51;;;;;;;;;;;22.90;44.40;;;;;;5033873;28;20396;-47
2022/04/18 13:46:18;;;;;;;;;;;22.90;44.40;;;;;;5033848;28;19925;-49
2022/04/18 13:48:49;;;;;;;;;;;22.90;44.30;;;;;;5032822;28;19925;-47
2022/04/18 13:51:17;;;;;;;;;;;22.90;44.30;;;;;;5033649;28;19962;-45
2022/04/18 13:53:44;;;;;;;;;;;22.90;44.20;;;;;;5033165;28;19941;-46
2022/04/18 13:56:11;;;;;;;;;;;22.90;44.30;;;;;;5033340;28;19932;-48
2022/04/18 13:58:38;;;;;;;;;;;22.90;44.30;;;;;;5033297;28;19929;-45
2022/04/18 14:01:06;;;;;;;;;;;22.90;44.30;;;;;;5033699;28;20301;-46
2022/04/18 14:03:33;;;;;;;;;;;22.90;44.30;;;;;;5032530;28;19932;-44
2022/04/18 14:06:04;;;;;;;;;;;22.90;44.30;;;;;;5033521;28;19925;-45
2022/04/18 14:08:36;;;;;;;;;;;22.90;44.30;;;;;;5033349;28;19929;-44
2022/04/18 14:11:03;;;;;;;;;;;22.90;44.40;;;;;;5033342;28;19956;-48
2022/04/18 14:13:30;;;;;;;;;;;22.80;44.30;;;;;;5078818;28;19924;-46
2022/04/18 14:21:29;;;;;;;;;;;22.80;44.40;;;;;;5095535;28;19924;-44
2022/04/18 14:23:56;;;;;;;;;;;22.80;44.40;;;;;;5095226;28;19927;-44
2022/04/18 14:26:25;;;;;;;;;;;22.80;44.40;;;;;;5095471;28;20265;-46
2022/04/18 14:28:53;;;;;;;;;;;22.80;44.40;;;;;;5095472;28;19950;-45
2022/04/18 14:31:20;;;;;;;;;;;22.80;44.40;;;;;;5095152;28;20397;-46
2022/04/18 14:33:52;;;;;;;;;;;22.80;44.40;;;;;;5094473;28;19928;-49
2022/04/18 14:36:20;;;;;;;;;;;22.80;44.40;;;;;;5095049;28;20375;-45
2022/04/18 14:38:49;;;;;;;;;;;22.80;44.40;;;;;;5094974;28;19923;-44
2022/04/18 14:41:17;;;;;;;;;;;22.80;44.50;;;;;;5095196;28;20292;-44
2022/04/18 14:43:44;;;;;;;;;;;22.80;44.50;;;;;;5094872;28;19924;-45
2022/04/18 14:46:11;;;;;;;;;;;22.80;44.60;;;;;;5094817;28;20007;-43
2022/04/18 14:48:38;;;;;;;;;;;22.70;44.50;;;;;;5093893;28;19930;-45
2022/04/18 14:51:05;;;;;;;;;;;22.70;44.50;;;;;;5094687;28;19924;-44
2022/04/18 14:53:32;;;;;;;;;;;22.70;44.50;;;;;;5095034;28;19970;-46
2022/04/18 14:55:59;;;;;;;;;;;22.70;44.60;;;;;;5094538;28;19924;-46
2022/04/18 14:58:26;;;;;;;;;;;22.70;44.60;;;;;;5094663;28;19928;-45
2022/04/18 15:00:53;;;;;;;;;;;22.70;44.60;;;;;;5094809;28;19935;-44